sensor_id;sensor_type;location;lat;lon;timestamp;temperature;humidity
44851;DHT22;30583;48.714;9.386;2023-05-10T00:00:14;16.70;82.30
44851;DHT22;30583;48.714;9.386;2023-05-10T00:02:39;16.60;82.30
44851;DHT22;30583;48.714;9.386;2023-05-10T00:05:06;16.80;81.80
44851;DHT22;30583;48.714;9.386;2023-05-10T00:07:32;16.70;81.90
44851;DHT22;30583;48.714;9.386;2023-05-10T00:09:57;16.60;81.90
44851;DHT22;30583;48.714;9.386;2023-05-10T00:12:23;16.60;82.20
44851;DHT22;30583;48.714;9.386;2023-05-10T00:14:49;16.70;82.10
44851;DHT22;30583;48.714;9.386;2023-05-10T00:17:14;16.70;82.10
44851;DHT22;30583;48.714;9.386;2023-05-10T00:19:40;16.70;82.30
44851;DHT22;30583;48.714;9.386;2023-05-10T00:22:05;16.70;81.80
44851;DHT22;30583;48.714;9.386;2023-05-10T00:24:31;16.60;82.50
44851;DHT22;30583;48.714;9.386;2023-05-10T00:26:57;16.80;82.10
44851;DHT22;30583;48.714;9.386;2023-05-10T00:29:22;16.70;82.60
44851;DHT22;30583;48.714;9.386;2023-05-10T00:31:48;16.80;82.50
44851;DHT22;30583;48.714;9.386;2023-05-10T00:34:13;16.80;82.50
44851;DHT22;30583;48.714;9.386;2023-05-10T00:36:39;16.70;82.90
44851;DHT22;30583;48.714;9.386;2023-05-10T00:39:04;16.70;83.00
44851;DHT22;30583;48.714;9.386;2023-05-10T00:41:30;16.80;82.60
44851;DHT22;30583;48.714;9.386;2023-05-10T00:43:59;16.40;82.40
44851;DHT22;30583;48.714;9.386;2023-05-10T00:46:25;16.70;81.90
44851;DHT22;30583;48.714;9.386;2023-05-10T00:48:51;16.70;81.60
44851;DHT22;30583;48.714;9.386;2023-05-10T00:51:17;16.70;82.00
44851;DHT22;30583;48.714;9.386;2023-05-10T00:53:44;16.50;81.40
44851;DHT22;30583;48.714;9.386;2023-05-10T00:56:10;16.50;81.40
44851;DHT22;30583;48.714;9.386;2023-05-10T00:58:36;16.50;81.40
44851;DHT22;30583;48.714;9.386;2023-05-10T01:01:02;16.50;81.10
44851;DHT22;30583;48.714;9.386;2023-05-10T01:03:28;16.60;80.40
44851;DHT22;30583;48.714;9.386;2023-05-10T01:05:54;16.60;79.70
44851;DHT22;30583;48.714;9.386;2023-05-10T01:08:20;16.60;79.50
44851;DHT22;30583;48.714;9.386;2023-05-10T01:10:46;16.70;79.70
44851;DHT22;30583;48.714;9.386;2023-05-10T01:13:26;16.60;79.60
44851;DHT22;30583;48.714;9.386;2023-05-10T01:15:54;16.70;79.90
44851;DHT22;30583;48.714;9.386;2023-05-10T01:18:20;16.50;80.40
44851;DHT22;30583;48.714;9.386;2023-05-10T01:20:51;16.50;80.00
44851;DHT22;30583;48.714;9.386;2023-05-10T01:32:06;16.40;79.50
44851;DHT22;30583;48.714;9.386;2023-05-10T01:34:42;16.40;78.90
44851;DHT22;30583;48.714;9.386;2023-05-10T01:37:15;16.20;78.90
44851;DHT22;30583;48.714;9.386;2023-05-10T01:39:53;16.00;79.10
44851;DHT22;30583;48.714;9.386;2023-05-10T01:42:23;16.20;78.90
44851;DHT22;30583;48.714;9.386;2023-05-10T01:50:09;16.20;78.30
44851;DHT22;30583;48.714;9.386;2023-05-10T01:52:45;16.10;78.90
44851;DHT22;30583;48.714;9.386;2023-05-10T01:55:16;16.20;78.50
44851;DHT22;30583;48.714;9.386;2023-05-10T01:57:44;16.20;78.30
44851;DHT22;30583;48.714;9.386;2023-05-10T02:00:10;16.20;78.10
44851;DHT22;30583;48.714;9.386;2023-05-10T02:02:38;16.20;78.20
44851;DHT22;30583;48.714;9.386;2023-05-10T02:05:09;16.10;78.50
44851;DHT22;30583;48.714;9.386;2023-05-10T02:07:37;16.10;78.40
44851;DHT22;30583;48.714;9.386;2023-05-10T02:10:05;16.20;78.40
44851;DHT22;30583;48.714;9.386;2023-05-10T02:12:33;16.20;78.30
44851;DHT22;30583;48.714;9.386;2023-05-10T02:15:02;16.20;78.40
44851;DHT22;30583;48.714;9.386;2023-05-10T02:17:31;16.20;77.90
44851;DHT22;30583;48.714;9.386;2023-05-10T02:19:58;16.30;77.80
44851;DHT22;30583;48.714;9.386;2023-05-10T02:22:26;16.20;78.30
44851;DHT22;30583;48.714;9.386;2023-05-10T02:24:54;15.90;78.40
44851;DHT22;30583;48.714;9.386;2023-05-10T02:27:22;16.20;78.40
44851;DHT22;30583;48.714;9.386;2023-05-10T02:29:49;16.00;78.10
44851;DHT22;30583;48.714;9.386;2023-05-10T02:32:17;15.60;79.00
44851;DHT22;30583;48.714;9.386;2023-05-10T02:34:44;15.60;79.20
44851;DHT22;30583;48.714;9.386;2023-05-10T02:37:13;15.80;78.50
44851;DHT22;30583;48.714;9.386;2023-05-10T02:39:40;15.60;79.30
44851;DHT22;30583;48.714;9.386;2023-05-10T02:42:16;15.30;79.90
44851;DHT22;30583;48.714;9.386;2023-05-10T02:44:43;15.50;79.90
44851;DHT22;30583;48.714;9.386;2023-05-10T02:47:10;15.60;79.10
44851;DHT22;30583;48.714;9.386;2023-05-10T02:49:36;15.70;78.60
44851;DHT22;30583;48.714;9.386;2023-05-10T02:52:05;15.40;78.90
44851;DHT22;30583;48.714;9.386;2023-05-10T02:54:38;15.20;79.20
44851;DHT22;30583;48.714;9.386;2023-05-10T02:57:05;15.30;79.10
44851;DHT22;30583;48.714;9.386;2023-05-10T02:59:31;15.70;78.80
44851;DHT22;30583;48.714;9.386;2023-05-10T03:01:59;15.70;78.80
44851;DHT22;30583;48.714;9.386;2023-05-10T03:04:25;15.70;79.00
44851;DHT22;30583;48.714;9.386;2023-05-10T03:06:51;15.70;78.90
44851;DHT22;30583;48.714;9.386;2023-05-10T03:09:17;15.80;79.00
44851;DHT22;30583;48.714;9.386;2023-05-10T03:11:45;15.70;79.40
44851;DHT22;30583;48.714;9.386;2023-05-10T03:14:26;15.80;79.30
44851;DHT22;30583;48.714;9.386;2023-05-10T03:19:43;15.90;79.10
44851;DHT22;30583;48.714;9.386;2023-05-10T03:22:10;15.70;80.00
44851;DHT22;30583;48.714;9.386;2023-05-10T03:24:39;15.80;79.50
44851;DHT22;30583;48.714;9.386;2023-05-10T03:27:07;15.70;80.00
44851;DHT22;30583;48.714;9.386;2023-05-10T03:29:33;15.70;80.40
44851;DHT22;30583;48.714;9.386;2023-05-10T03:31:59;15.70;80.40
44851;DHT22;30583;48.714;9.386;2023-05-10T03:34:25;15.70;80.40
44851;DHT22;30583;48.714;9.386;2023-05-10T03:36:51;15.70;80.70
44851;DHT22;30583;48.714;9.386;2023-05-10T03:39:17;15.70;80.50
44851;DHT22;30583;48.714;9.386;2023-05-10T03:41:42;15.80;79.90
44851;DHT22;30583;48.714;9.386;2023-05-10T03:44:08;15.70;80.40
44851;DHT22;30583;48.714;9.386;2023-05-10T03:46:33;15.80;80.10
44851;DHT22;30583;48.714;9.386;2023-05-10T03:48:59;15.70;80.30
44851;DHT22;30583;48.714;9.386;2023-05-10T03:51:25;15.70;80.10
44851;DHT22;30583;48.714;9.386;2023-05-10T03:53:54;15.80;79.70
44851;DHT22;30583;48.714;9.386;2023-05-10T03:56:19;15.70;80.20
44851;DHT22;30583;48.714;9.386;2023-05-10T03:58:46;15.90;80.10
44851;DHT22;30583;48.714;9.386;2023-05-10T04:01:11;15.90;79.80
44851;DHT22;30583;48.714;9.386;2023-05-10T04:03:37;15.90;79.70
44851;DHT22;30583;48.714;9.386;2023-05-10T04:06:03;16.00;79.80
44851;DHT22;30583;48.714;9.386;2023-05-10T04:08:29;16.00;79.60
44851;DHT22;30583;48.714;9.386;2023-05-10T04:11:05;15.90;79.80
44851;DHT22;30583;48.714;9.386;2023-05-10T04:13:31;15.90;80.30
44851;DHT22;30583;48.714;9.386;2023-05-10T04:15:57;15.90;80.60
44851;DHT22;30583;48.714;9.386;2023-05-10T04:18:23;15.60;80.50
44851;DHT22;30583;48.714;9.386;2023-05-10T04:20:48;15.60;81.00
44851;DHT22;30583;48.714;9.386;2023-05-10T04:23:14;15.80;80.40
44851;DHT22;30583;48.714;9.386;2023-05-10T04:25:42;15.70;80.60
44851;DHT22;30583;48.714;9.386;2023-05-10T04:28:07;15.40;80.20
44851;DHT22;30583;48.714;9.386;2023-05-10T04:30:33;15.40;79.60
44851;DHT22;30583;48.714;9.386;2023-05-10T04:32:58;15.70;79.80
44851;DHT22;30583;48.714;9.386;2023-05-10T04:35:24;15.60;79.40
44851;DHT22;30583;48.714;9.386;2023-05-10T04:37:50;17.30;78.60
44851;DHT22;30583;48.714;9.386;2023-05-10T04:40:15;19.40;69.50
44851;DHT22;30583;48.714;9.386;2023-05-10T04:42:41;19.70;67.80
44851;DHT22;30583;48.714;9.386;2023-05-10T04:45:07;17.70;71.10
44851;DHT22;30583;48.714;9.386;2023-05-10T04:47:36;16.50;76.20
44851;DHT22;30583;48.714;9.386;2023-05-10T04:50:05;16.00;77.70
44851;DHT22;30583;48.714;9.386;2023-05-10T04:52:31;16.10;78.50
44851;DHT22;30583;48.714;9.386;2023-05-10T04:54:57;15.90;79.20
44851;DHT22;30583;48.714;9.386;2023-05-10T04:57:22;15.90;78.80
44851;DHT22;30583;48.714;9.386;2023-05-10T04:59:48;15.80;79.20
44851;DHT22;30583;48.714;9.386;2023-05-10T05:02:13;15.90;78.80
44851;DHT22;30583;48.714;9.386;2023-05-10T05:04:39;15.80;79.60
44851;DHT22;30583;48.714;9.386;2023-05-10T05:07:05;16.00;78.90
44851;DHT22;30583;48.714;9.386;2023-05-10T05:09:30;15.90;79.20
44851;DHT22;30583;48.714;9.386;2023-05-10T05:11:57;16.00;79.20
44851;DHT22;30583;48.714;9.386;2023-05-10T05:14:23;16.00;78.80
44851;DHT22;30583;48.714;9.386;2023-05-10T05:16:51;16.10;78.10
44851;DHT22;30583;48.714;9.386;2023-05-10T05:19:17;16.20;77.90
44851;DHT22;30583;48.714;9.386;2023-05-10T05:21:42;16.40;77.60
44851;DHT22;30583;48.714;9.386;2023-05-10T05:24:08;16.40;76.50
44851;DHT22;30583;48.714;9.386;2023-05-10T05:26:35;16.40;76.80
44851;DHT22;30583;48.714;9.386;2023-05-10T05:29:02;16.20;77.90
44851;DHT22;30583;48.714;9.386;2023-05-10T05:31:28;16.10;78.50
44851;DHT22;30583;48.714;9.386;2023-05-10T05:33:53;16.20;78.10
44851;DHT22;30583;48.714;9.386;2023-05-10T05:36:19;16.20;78.90
44851;DHT22;30583;48.714;9.386;2023-05-10T05:38:45;16.20;79.00
44851;DHT22;30583;48.714;9.386;2023-05-10T05:41:10;16.20;78.50
44851;DHT22;30583;48.714;9.386;2023-05-10T05:43:36;16.20;78.60
44851;DHT22;30583;48.714;9.386;2023-05-10T05:46:01;16.20;78.20
44851;DHT22;30583;48.714;9.386;2023-05-10T05:48:28;16.20;77.60
44851;DHT22;30583;48.714;9.386;2023-05-10T05:50:55;16.00;77.30
44851;DHT22;30583;48.714;9.386;2023-05-10T05:53:22;15.80;77.80
44851;DHT22;30583;48.714;9.386;2023-05-10T05:55:55;16.00;78.30
44851;DHT22;30583;48.714;9.386;2023-05-10T05:58:25;16.10;78.00
44851;DHT22;30583;48.714;9.386;2023-05-10T06:00:51;16.20;77.50
44851;DHT22;30583;48.714;9.386;2023-05-10T06:03:17;15.90;78.60
44851;DHT22;30583;48.714;9.386;2023-05-10T06:05:43;16.20;77.90
44851;DHT22;30583;48.714;9.386;2023-05-10T06:08:09;15.90;77.50
44851;DHT22;30583;48.714;9.386;2023-05-10T06:10:35;16.10;77.60
44851;DHT22;30583;48.714;9.386;2023-05-10T06:13:00;16.20;78.00
44851;DHT22;30583;48.714;9.386;2023-05-10T06:15:27;16.20;77.70
44851;DHT22;30583;48.714;9.386;2023-05-10T06:17:52;15.90;77.40
44851;DHT22;30583;48.714;9.386;2023-05-10T06:20:18;16.00;78.00
44851;DHT22;30583;48.714;9.386;2023-05-10T06:22:43;15.70;78.00
44851;DHT22;30583;48.714;9.386;2023-05-10T06:25:09;15.80;77.90
44851;DHT22;30583;48.714;9.386;2023-05-10T06:27:35;15.70;78.40
44851;DHT22;30583;48.714;9.386;2023-05-10T06:30:01;15.90;78.30
44851;DHT22;30583;48.714;9.386;2023-05-10T06:32:28;16.00;78.00
44851;DHT22;30583;48.714;9.386;2023-05-10T06:34:53;16.10;77.70
44851;DHT22;30583;48.714;9.386;2023-05-10T06:37:19;16.20;77.70
44851;DHT22;30583;48.714;9.386;2023-05-10T06:39:44;16.10;78.10
44851;DHT22;30583;48.714;9.386;2023-05-10T06:42:10;16.10;78.40
44851;DHT22;30583;48.714;9.386;2023-05-10T06:44:36;15.90;77.50
44851;DHT22;30583;48.714;9.386;2023-05-10T06:47:01;16.00;77.90
44851;DHT22;30583;48.714;9.386;2023-05-10T06:49:27;16.20;77.70
44851;DHT22;30583;48.714;9.386;2023-05-10T06:51:52;16.20;76.50
44851;DHT22;30583;48.714;9.386;2023-05-10T06:54:19;16.30;77.00
44851;DHT22;30583;48.714;9.386;2023-05-10T06:56:44;16.20;76.60
44851;DHT22;30583;48.714;9.386;2023-05-10T06:59:10;16.20;76.40
44851;DHT22;30583;48.714;9.386;2023-05-10T07:01:35;16.00;77.50
44851;DHT22;30583;48.714;9.386;2023-05-10T07:04:01;16.20;77.50
44851;DHT22;30583;48.714;9.386;2023-05-10T07:06:27;16.30;77.10
44851;DHT22;30583;48.714;9.386;2023-05-10T07:08:52;16.20;77.20
44851;DHT22;30583;48.714;9.386;2023-05-10T07:11:18;16.30;77.60
44851;DHT22;30583;48.714;9.386;2023-05-10T07:13:43;16.20;76.40
44851;DHT22;30583;48.714;9.386;2023-05-10T07:16:11;16.00;77.70
44851;DHT22;30583;48.714;9.386;2023-05-10T07:18:37;15.80;78.50
44851;DHT22;30583;48.714;9.386;2023-05-10T07:21:02;16.00;78.10
44851;DHT22;30583;48.714;9.386;2023-05-10T07:23:28;15.70;77.50
44851;DHT22;30583;48.714;9.386;2023-05-10T07:25:54;15.70;78.20
44851;DHT22;30583;48.714;9.386;2023-05-10T07:28:22;15.70;78.00
44851;DHT22;30583;48.714;9.386;2023-05-10T07:30:48;15.70;78.40
44851;DHT22;30583;48.714;9.386;2023-05-10T07:33:14;15.70;78.30
44851;DHT22;30583;48.714;9.386;2023-05-10T07:35:40;15.70;78.30
44851;DHT22;30583;48.714;9.386;2023-05-10T07:38:05;15.80;77.90
44851;DHT22;30583;48.714;9.386;2023-05-10T07:40:32;15.80;78.10
44851;DHT22;30583;48.714;9.386;2023-05-10T07:42:57;16.00;77.90
44851;DHT22;30583;48.714;9.386;2023-05-10T07:45:23;16.20;77.90
44851;DHT22;30583;48.714;9.386;2023-05-10T07:47:49;16.20;78.20
44851;DHT22;30583;48.714;9.386;2023-05-10T07:50:15;16.00;78.50
44851;DHT22;30583;48.714;9.386;2023-05-10T07:52:41;16.00;79.30
44851;DHT22;30583;48.714;9.386;2023-05-10T07:55:07;16.10;78.50
44851;DHT22;30583;48.714;9.386;2023-05-10T07:57:36;16.20;77.50
44851;DHT22;30583;48.714;9.386;2023-05-10T08:00:02;16.20;77.30
44851;DHT22;30583;48.714;9.386;2023-05-10T08:02:28;16.00;77.60
44851;DHT22;30583;48.714;9.386;2023-05-10T08:04:54;16.30;77.50
44851;DHT22;30583;48.714;9.386;2023-05-10T08:07:19;16.40;77.30
44851;DHT22;30583;48.714;9.386;2023-05-10T08:09:45;16.40;77.80
44851;DHT22;30583;48.714;9.386;2023-05-10T08:12:10;16.40;76.60
44851;DHT22;30583;48.714;9.386;2023-05-10T08:14:36;16.40;76.10
44851;DHT22;30583;48.714;9.386;2023-05-10T08:17:04;16.30;76.10
44851;DHT22;30583;48.714;9.386;2023-05-10T08:19:30;15.90;76.70
44851;DHT22;30583;48.714;9.386;2023-05-10T08:21:56;16.10;76.50
44851;DHT22;30583;48.714;9.386;2023-05-10T08:24:22;16.20;77.20
44851;DHT22;30583;48.714;9.386;2023-05-10T08:26:48;16.30;75.60
44851;DHT22;30583;48.714;9.386;2023-05-10T08:29:14;16.30;75.70
44851;DHT22;30583;48.714;9.386;2023-05-10T08:31:40;16.20;76.00
44851;DHT22;30583;48.714;9.386;2023-05-10T08:34:06;16.50;75.80
44851;DHT22;30583;48.714;9.386;2023-05-10T08:36:31;16.40;75.10
44851;DHT22;30583;48.714;9.386;2023-05-10T08:38:57;16.20;75.30
44851;DHT22;30583;48.714;9.386;2023-05-10T08:41:23;15.90;75.30
44851;DHT22;30583;48.714;9.386;2023-05-10T08:43:52;16.00;75.30
44851;DHT22;30583;48.714;9.386;2023-05-10T08:46:19;16.20;75.30
44851;DHT22;30583;48.714;9.386;2023-05-10T08:48:46;16.30;74.60
44851;DHT22;30583;48.714;9.386;2023-05-10T08:51:14;15.90;74.50
44851;DHT22;30583;48.714;9.386;2023-05-10T08:53:44;16.10;75.10
44851;DHT22;30583;48.714;9.386;2023-05-10T08:56:10;16.10;74.50
44851;DHT22;30583;48.714;9.386;2023-05-10T08:58:36;16.40;73.50
44851;DHT22;30583;48.714;9.386;2023-05-10T09:01:03;16.50;73.00
44851;DHT22;30583;48.714;9.386;2023-05-10T09:03:30;16.50;73.00
44851;DHT22;30583;48.714;9.386;2023-05-10T09:05:56;16.40;73.20
44851;DHT22;30583;48.714;9.386;2023-05-10T09:08:23;16.20;73.80
44851;DHT22;30583;48.714;9.386;2023-05-10T09:10:53;16.30;74.00
44851;DHT22;30583;48.714;9.386;2023-05-10T09:13:23;16.50;74.30
44851;DHT22;30583;48.714;9.386;2023-05-10T09:15:50;16.50;74.40
44851;DHT22;30583;48.714;9.386;2023-05-10T09:18:16;16.50;73.80
44851;DHT22;30583;48.714;9.386;2023-05-10T09:20:42;16.20;72.30
44851;DHT22;30583;48.714;9.386;2023-05-10T09:23:08;16.10;72.20
44851;DHT22;30583;48.714;9.386;2023-05-10T09:25:34;16.30;72.20
44851;DHT22;30583;48.714;9.386;2023-05-10T09:28:00;16.50;71.00
44851;DHT22;30583;48.714;9.386;2023-05-10T09:30:29;16.30;72.30
44851;DHT22;30583;48.714;9.386;2023-05-10T09:32:57;16.20;70.60
44851;DHT22;30583;48.714;9.386;2023-05-10T09:35:25;16.50;71.10
44851;DHT22;30583;48.714;9.386;2023-05-10T09:37:53;16.70;71.50
44851;DHT22;30583;48.714;9.386;2023-05-10T09:40:26;16.80;71.30
44851;DHT22;30583;48.714;9.386;2023-05-10T09:43:03;17.00;70.80
44851;DHT22;30583;48.714;9.386;2023-05-10T09:45:30;17.20;71.70
44851;DHT22;30583;48.714;9.386;2023-05-10T09:47:57;17.10;70.90
44851;DHT22;30583;48.714;9.386;2023-05-10T09:50:23;17.10;71.20
44851;DHT22;30583;48.714;9.386;2023-05-10T09:52:59;17.20;71.50
44851;DHT22;30583;48.714;9.386;2023-05-10T09:55:45;17.30;71.60
44851;DHT22;30583;48.714;9.386;2023-05-10T09:58:12;17.20;70.60
44851;DHT22;30583;48.714;9.386;2023-05-10T10:00:43;17.20;71.40
44851;DHT22;30583;48.714;9.386;2023-05-10T10:03:14;17.30;71.20
44851;DHT22;30583;48.714;9.386;2023-05-10T10:05:41;16.70;72.10
44851;DHT22;30583;48.714;9.386;2023-05-10T10:08:08;16.10;73.80
44851;DHT22;30583;48.714;9.386;2023-05-10T10:10:33;16.30;74.70
44851;DHT22;30583;48.714;9.386;2023-05-10T10:12:59;16.40;73.60
44851;DHT22;30583;48.714;9.386;2023-05-10T10:15:25;16.40;73.20
44851;DHT22;30583;48.714;9.386;2023-05-10T10:17:51;16.70;73.40
44851;DHT22;30583;48.714;9.386;2023-05-10T10:20:19;17.20;72.90
44851;DHT22;30583;48.714;9.386;2023-05-10T10:22:46;17.30;72.70
44851;DHT22;30583;48.714;9.386;2023-05-10T10:25:14;17.30;71.50
44851;DHT22;30583;48.714;9.386;2023-05-10T10:35:53;17.20;70.60
44851;DHT22;30583;48.714;9.386;2023-05-10T10:38:20;17.70;70.50
44851;DHT22;30583;48.714;9.386;2023-05-10T10:40:47;17.70;69.70
44851;DHT22;30583;48.714;9.386;2023-05-10T10:43:26;17.70;68.90
44851;DHT22;30583;48.714;9.386;2023-05-10T10:46:15;18.00;68.60
44851;DHT22;30583;48.714;9.386;2023-05-10T10:48:47;17.80;67.40
44851;DHT22;30583;48.714;9.386;2023-05-10T10:51:13;17.80;66.70
44851;DHT22;30583;48.714;9.386;2023-05-10T10:53:40;17.70;66.90
44851;DHT22;30583;48.714;9.386;2023-05-10T10:56:11;17.60;67.10
44851;DHT22;30583;48.714;9.386;2023-05-10T10:58:38;17.60;66.60
44851;DHT22;30583;48.714;9.386;2023-05-10T11:01:14;17.60;68.20
44851;DHT22;30583;48.714;9.386;2023-05-10T11:03:41;17.70;67.90
44851;DHT22;30583;48.714;9.386;2023-05-10T11:06:32;17.20;65.70
44851;DHT22;30583;48.714;9.386;2023-05-10T11:08:59;17.40;66.50
44851;DHT22;30583;48.714;9.386;2023-05-10T11:11:24;17.40;68.10
44851;DHT22;30583;48.714;9.386;2023-05-10T11:13:51;17.30;69.70
44851;DHT22;30583;48.714;9.386;2023-05-10T11:19:07;17.30;70.20
44851;DHT22;30583;48.714;9.386;2023-05-10T11:21:51;17.30;70.90
44851;DHT22;30583;48.714;9.386;2023-05-10T11:24:22;17.20;71.80
44851;DHT22;30583;48.714;9.386;2023-05-10T11:26:50;17.30;71.50
44851;DHT22;30583;48.714;9.386;2023-05-10T11:29:17;17.40;70.90
44851;DHT22;30583;48.714;9.386;2023-05-10T11:31:44;17.40;70.20
44851;DHT22;30583;48.714;9.386;2023-05-10T11:34:11;17.00;68.80
44851;DHT22;30583;48.714;9.386;2023-05-10T11:36:37;16.80;68.30
44851;DHT22;30583;48.714;9.386;2023-05-10T11:39:03;16.40;65.20
44851;DHT22;30583;48.714;9.386;2023-05-10T11:41:30;16.20;64.70
44851;DHT22;30583;48.714;9.386;2023-05-10T11:43:56;16.20;64.90
44851;DHT22;30583;48.714;9.386;2023-05-10T11:46:27;16.40;64.60
44851;DHT22;30583;48.714;9.386;2023-05-10T11:49:01;16.40;64.80
44851;DHT22;30583;48.714;9.386;2023-05-10T11:51:29;16.40;66.10
44851;DHT22;30583;48.714;9.386;2023-05-10T11:53:57;16.50;65.60
44851;DHT22;30583;48.714;9.386;2023-05-10T11:56:23;16.30;66.10
44851;DHT22;30583;48.714;9.386;2023-05-10T11:58:57;16.20;68.10
44851;DHT22;30583;48.714;9.386;2023-05-10T12:01:24;16.20;66.70
44851;DHT22;30583;48.714;9.386;2023-05-10T12:03:51;16.00;66.50
44851;DHT22;30583;48.714;9.386;2023-05-10T12:06:19;15.70;65.40
44851;DHT22;30583;48.714;9.386;2023-05-10T12:08:48;15.50;65.10
44851;DHT22;30583;48.714;9.386;2023-05-10T12:11:17;15.40;66.80
44851;DHT22;30583;48.714;9.386;2023-05-10T12:13:44;15.20;67.40
44851;DHT22;30583;48.714;9.386;2023-05-10T12:16:18;15.00;69.10
44851;DHT22;30583;48.714;9.386;2023-05-10T12:18:44;14.90;70.50
44851;DHT22;30583;48.714;9.386;2023-05-10T12:21:11;14.90;71.60
44851;DHT22;30583;48.714;9.386;2023-05-10T12:23:38;15.10;71.60
44851;DHT22;30583;48.714;9.386;2023-05-10T12:26:04;15.20;71.40
44851;DHT22;30583;48.714;9.386;2023-05-10T12:28:30;15.20;72.80
44851;DHT22;30583;48.714;9.386;2023-05-10T12:30:58;15.00;73.30
44851;DHT22;30583;48.714;9.386;2023-05-10T12:33:24;15.00;74.50
44851;DHT22;30583;48.714;9.386;2023-05-10T12:35:52;15.10;75.20
44851;DHT22;30583;48.714;9.386;2023-05-10T12:38:40;15.30;75.60
44851;DHT22;30583;48.714;9.386;2023-05-10T12:41:13;15.00;75.70
44851;DHT22;30583;48.714;9.386;2023-05-10T12:43:39;15.40;75.40
44851;DHT22;30583;48.714;9.386;2023-05-10T12:46:12;15.10;76.70
44851;DHT22;30583;48.714;9.386;2023-05-10T12:48:39;15.00;77.40
44851;DHT22;30583;48.714;9.386;2023-05-10T12:51:06;15.20;77.00
44851;DHT22;30583;48.714;9.386;2023-05-10T12:53:35;15.20;76.90
44851;DHT22;30583;48.714;9.386;2023-05-10T12:56:01;15.40;76.70
44851;DHT22;30583;48.714;9.386;2023-05-10T12:58:27;15.50;75.60
44851;DHT22;30583;48.714;9.386;2023-05-10T13:00:52;15.20;76.80
44851;DHT22;30583;48.714;9.386;2023-05-10T13:03:18;15.00;77.80
44851;DHT22;30583;48.714;9.386;2023-05-10T13:05:43;14.90;79.30
44851;DHT22;30583;48.714;9.386;2023-05-10T13:08:09;15.60;77.90
44851;DHT22;30583;48.714;9.386;2023-05-10T13:10:35;15.30;78.20
44851;DHT22;30583;48.714;9.386;2023-05-10T13:13:00;15.10;77.70
44851;DHT22;30583;48.714;9.386;2023-05-10T13:15:26;15.20;78.30
44851;DHT22;30583;48.714;9.386;2023-05-10T13:17:53;15.50;77.60
44851;DHT22;30583;48.714;9.386;2023-05-10T13:20:18;16.10;75.70
44851;DHT22;30583;48.714;9.386;2023-05-10T13:22:44;16.10;75.50
44851;DHT22;30583;48.714;9.386;2023-05-10T13:25:10;16.60;74.70
44851;DHT22;30583;48.714;9.386;2023-05-10T13:27:37;16.60;74.20
44851;DHT22;30583;48.714;9.386;2023-05-10T13:30:03;16.70;74.40
44851;DHT22;30583;48.714;9.386;2023-05-10T13:32:29;16.40;75.10
44851;DHT22;30583;48.714;9.386;2023-05-10T13:34:55;16.00;75.10
44851;DHT22;30583;48.714;9.386;2023-05-10T13:37:21;16.40;75.10
44851;DHT22;30583;48.714;9.386;2023-05-10T13:39:47;16.90;74.10
44851;DHT22;30583;48.714;9.386;2023-05-10T13:42:13;16.90;73.80
44851;DHT22;30583;48.714;9.386;2023-05-10T13:44:38;16.90;74.00
44851;DHT22;30583;48.714;9.386;2023-05-10T13:47:04;17.20;72.70
44851;DHT22;30583;48.714;9.386;2023-05-10T13:49:30;16.90;72.50
44851;DHT22;30583;48.714;9.386;2023-05-10T13:51:56;16.70;74.30
44851;DHT22;30583;48.714;9.386;2023-05-10T13:54:22;16.70;73.50
44851;DHT22;30583;48.714;9.386;2023-05-10T13:56:48;16.70;74.10
44851;DHT22;30583;48.714;9.386;2023-05-10T13:59:14;17.10;73.20
44851;DHT22;30583;48.714;9.386;2023-05-10T14:01:41;17.40;72.80
44851;DHT22;30583;48.714;9.386;2023-05-10T14:04:06;17.50;71.80
44851;DHT22;30583;48.714;9.386;2023-05-10T14:06:35;17.20;71.70
44851;DHT22;30583;48.714;9.386;2023-05-10T14:09:02;17.50;71.80
44851;DHT22;30583;48.714;9.386;2023-05-10T14:11:27;17.40;71.30
44851;DHT22;30583;48.714;9.386;2023-05-10T14:13:53;17.40;71.70
44851;DHT22;30583;48.714;9.386;2023-05-10T14:16:19;17.40;70.20
44851;DHT22;30583;48.714;9.386;2023-05-10T14:18:45;17.30;71.70
44851;DHT22;30583;48.714;9.386;2023-05-10T14:21:11;17.20;71.90
44851;DHT22;30583;48.714;9.386;2023-05-10T14:23:37;16.80;72.70
44851;DHT22;30583;48.714;9.386;2023-05-10T14:26:03;17.20;71.30
44851;DHT22;30583;48.714;9.386;2023-05-10T14:28:28;17.30;71.70
44851;DHT22;30583;48.714;9.386;2023-05-10T14:30:54;17.30;71.00
44851;DHT22;30583;48.714;9.386;2023-05-10T14:33:19;17.10;72.40
44851;DHT22;30583;48.714;9.386;2023-05-10T14:35:46;16.70;73.90
44851;DHT22;30583;48.714;9.386;2023-05-10T14:38:12;16.50;74.80
44851;DHT22;30583;48.714;9.386;2023-05-10T14:40:38;16.70;74.50
44851;DHT22;30583;48.714;9.386;2023-05-10T14:43:03;17.00;72.30
44851;DHT22;30583;48.714;9.386;2023-05-10T14:45:30;17.40;71.10
44851;DHT22;30583;48.714;9.386;2023-05-10T14:47:56;16.90;71.70
44851;DHT22;30583;48.714;9.386;2023-05-10T14:50:22;16.70;73.80
44851;DHT22;30583;48.714;9.386;2023-05-10T14:52:48;17.20;71.60
44851;DHT22;30583;48.714;9.386;2023-05-10T14:55:14;17.40;70.80
44851;DHT22;30583;48.714;9.386;2023-05-10T14:57:40;17.30;71.00
44851;DHT22;30583;48.714;9.386;2023-05-10T15:00:06;17.20;71.00
44851;DHT22;30583;48.714;9.386;2023-05-10T15:02:32;17.50;70.20
44851;DHT22;30583;48.714;9.386;2023-05-10T15:04:58;17.20;70.50
44851;DHT22;30583;48.714;9.386;2023-05-10T15:07:23;17.20;69.80
44851;DHT22;30583;48.714;9.386;2023-05-10T15:09:50;17.10;69.20
44851;DHT22;30583;48.714;9.386;2023-05-10T15:12:17;17.00;68.70
44851;DHT22;30583;48.714;9.386;2023-05-10T15:14:42;17.00;68.60
44851;DHT22;30583;48.714;9.386;2023-05-10T15:17:08;17.40;68.70
44851;DHT22;30583;48.714;9.386;2023-05-10T15:19:34;17.80;67.40
44851;DHT22;30583;48.714;9.386;2023-05-10T15:21:59;17.80;67.00
44851;DHT22;30583;48.714;9.386;2023-05-10T15:24:25;17.80;67.30
44851;DHT22;30583;48.714;9.386;2023-05-10T15:26:50;17.70;67.30
44851;DHT22;30583;48.714;9.386;2023-05-10T15:29:16;17.60;67.70
44851;DHT22;30583;48.714;9.386;2023-05-10T15:31:46;17.70;67.30
44851;DHT22;30583;48.714;9.386;2023-05-10T15:34:13;17.80;67.10
44851;DHT22;30583;48.714;9.386;2023-05-10T15:36:39;17.70;66.70
44851;DHT22;30583;48.714;9.386;2023-05-10T15:39:04;17.70;66.60
44851;DHT22;30583;48.714;9.386;2023-05-10T15:41:30;17.90;67.10
44851;DHT22;30583;48.714;9.386;2023-05-10T15:43:57;18.10;65.90
44851;DHT22;30583;48.714;9.386;2023-05-10T15:46:25;18.10;66.10
44851;DHT22;30583;48.714;9.386;2023-05-10T15:48:50;18.00;66.80
44851;DHT22;30583;48.714;9.386;2023-05-10T15:51:16;17.70;64.90
44851;DHT22;30583;48.714;9.386;2023-05-10T15:53:42;17.40;66.00
44851;DHT22;30583;48.714;9.386;2023-05-10T15:56:07;17.60;66.50